Terminal Aerodrome Forecast
Issued by NWS

Home | Current Version | Previous Version | Graphics & Text | Print | Product List | Glossary Off
Versions: 1 2 3 4 5 6 7 8 9 10 11 12

422
FTUS43 KUNR 271720
TAFGCC
TAF
KGCC 271720Z 2718/2818 20014KT P6SM SCT200
     FM280300 21007KT P6SM FEW200=

USA.gov is the U.S. government's official web portal to all federal, state and local government web resources and services.